Time;durP1;ratioP1;P1;durP2;ratioP2;P2;SDS_P1;SDS_P2;PMS_P1;PMS_P2;Temp;Humidity;BMP_temperature;BMP_pressure;BME280_temperature;BME280_humidity;BME280_pressure;Samples;Min_cycle;Max_cycle;Signal;HPM_P1;HPM_P2
2023/07/06 00:00:59;;;;;;;5.60;4.77;;;;;;;;;;5018624;28;20762;-86
2023/07/06 00:03:27;;;;;;;7.07;4.90;;;;;;;;;;5017338;28;20216;-86
2023/07/06 00:05:53;;;;;;;6.80;4.80;;;;;;;;;;5010945;28;20220;-84
2023/07/06 00:08:18;;;;;;;5.60;5.00;;;;;;;;;;5000244;28;20648;-87
2023/07/06 00:10:49;;;;;;;6.10;5.20;;;;;;;;;;5005924;28;20713;-86
2023/07/06 00:13:15;;;;;;;8.77;5.30;;;;;;;;;;4982671;28;20232;-85
2023/07/06 00:15:43;;;;;;;6.40;4.47;;;;;;;;;;4987433;28;20232;-85
2023/07/06 00:18:12;;;;;;;7.57;5.23;;;;;;;;;;5009323;28;20510;-85
2023/07/06 00:20:38;;;;;;;6.07;5.27;;;;;;;;;;5001154;28;20222;-84
2023/07/06 00:23:08;;;;;;;5.83;4.70;;;;;;;;;;5026927;28;20295;-86
2023/07/06 00:25:34;;;;;;;6.07;5.17;;;;;;;;;;5000474;28;20250;-85
2023/07/06 00:28:02;;;;;;;7.33;4.80;;;;;;;;;;5022808;28;20234;-89
2023/07/06 00:33:12;;;;;;;5.73;4.87;;;;;;;;;;5004453;28;20308;-86
2023/07/06 00:35:41;;;;;;;5.97;5.10;;;;;;;;;;5017258;28;20224;-84
2023/07/06 00:38:13;;;;;;;8.27;4.93;;;;;;;;;;4999050;28;20252;-86
2023/07/06 00:40:39;;;;;;;6.77;4.87;;;;;;;;;;5023512;28;20698;-86
2023/07/06 00:43:06;;;;;;;7.23;4.83;;;;;;;;;;4998028;28;20228;-82
2023/07/06 00:45:34;;;;;;;5.30;4.83;;;;;;;;;;5001123;28;20223;-84
2023/07/06 00:48:00;;;;;;;4.90;4.37;;;;;;;;;;5024410;28;20247;-85
2023/07/06 00:50:32;;;;;;;6.77;4.77;;;;;;;;;;5014932;28;20283;-84
2023/07/06 00:53:03;;;;;;;6.27;4.67;;;;;;;;;;5040145;28;20247;-85
2023/07/06 00:55:31;;;;;;;5.87;4.70;;;;;;;;;;5048624;28;20220;-84
2023/07/06 00:58:03;;;;;;;5.93;4.87;;;;;;;;;;5013888;28;20284;-83
2023/07/06 01:00:28;;;;;;;7.97;5.50;;;;;;;;;;5045552;28;20221;-84
2023/07/06 01:03:00;;;;;;;7.63;5.10;;;;;;;;;;5000540;28;20347;-84
2023/07/06 01:05:26;;;;;;;7.80;4.77;;;;;;;;;;5019659;28;20244;-83
2023/07/06 01:07:54;;;;;;;5.70;5.10;;;;;;;;;;5020142;28;20217;-85
2023/07/06 01:10:23;;;;;;;5.70;5.20;;;;;;;;;;5003731;28;20224;-85
2023/07/06 01:12:49;;;;;;;5.67;4.93;;;;;;;;;;4999644;28;20225;-86
2023/07/06 01:15:18;;;;;;;6.00;5.40;;;;;;;;;;5041348;28;20288;-90
2023/07/06 01:17:54;;;;;;;6.50;5.60;;;;;;;;;;4991001;28;20215;-88
2023/07/06 01:20:31;;;;;;;6.03;5.23;;;;;;;;;;5027256;28;20231;-84
2023/07/06 01:23:17;;;;;;;9.13;5.90;;;;;;;;;;5003958;28;20216;-85
2023/07/06 01:25:45;;;;;;;6.13;5.03;;;;;;;;;;5031328;28;20231;-86
2023/07/06 01:28:41;;;;;;;6.20;5.03;;;;;;;;;;5027944;28;20232;-86
2023/07/06 01:31:27;;;;;;;7.40;5.37;;;;;;;;;;5037619;28;20307;-88
2023/07/06 01:33:53;;;;;;;6.93;5.53;;;;;;;;;;5017979;28;20223;-86
2023/07/06 01:36:34;;;;;;;7.53;5.07;;;;;;;;;;5000416;28;20217;-87
2023/07/06 01:39:13;;;;;;;6.77;5.30;;;;;;;;;;5032981;28;20220;-87
2023/07/06 01:41:45;;;;;;;5.90;5.30;;;;;;;;;;5047463;28;20219;-87
2023/07/06 01:44:14;;;;;;;6.50;5.80;;;;;;;;;;5024394;28;20219;-85
2023/07/06 01:46:49;;;;;;;5.97;5.43;;;;;;;;;;4995894;28;20248;-85
2023/07/06 01:49:15;;;;;;;6.30;5.03;;;;;;;;;;5041808;28;20761;-85
2023/07/06 01:51:50;;;;;;;5.87;5.37;;;;;;;;;;4978792;28;20241;-88
2023/07/06 01:54:18;;;;;;;5.97;5.37;;;;;;;;;;4997192;28;20676;-86
2023/07/06 01:56:51;;;;;;;6.23;5.57;;;;;;;;;;4994139;28;20221;-88
2023/07/06 01:59:18;;;;;;;8.07;5.63;;;;;;;;;;5012980;28;20764;-85
2023/07/06 02:01:50;;;;;;;8.90;5.87;;;;;;;;;;4978226;28;20228;-87
2023/07/06 02:04:21;;;;;;;7.27;5.70;;;;;;;;;;5020875;28;20744;-86
2023/07/06 02:06:53;;;;;;;6.43;5.80;;;;;;;;;;5023786;28;20217;-85
2023/07/06 02:09:24;;;;;;;6.73;5.50;;;;;;;;;;4993899;28;20235;-85
2023/07/06 02:11:52;;;;;;;6.53;5.90;;;;;;;;;;4979024;28;20622;-86
2023/07/06 02:14:21;;;;;;;9.73;5.93;;;;;;;;;;4979759;28;20224;-86
2023/07/06 02:16:52;;;;;;;7.40;6.13;;;;;;;;;;4961942;28;20576;-85
2023/07/06 02:19:20;;;;;;;6.87;6.17;;;;;;;;;;4979697;28;20360;-86
2023/07/06 02:21:48;;;;;;;6.90;6.13;;;;;;;;;;4982184;28;20224;-85
2023/07/06 02:24:17;;;;;;;6.60;6.00;;;;;;;;;;4975279;28;20608;-87
2023/07/06 02:26:45;;;;;;;8.00;6.60;;;;;;;;;;4988584;28;20208;-86
2023/07/06 02:29:14;;;;;;;7.13;6.27;;;;;;;;;;4982690;28;20263;-87
2023/07/06 02:31:40;;;;;;;7.80;6.67;;;;;;;;;;4943427;28;20221;-85
2023/07/06 02:34:05;;;;;;;7.70;6.33;;;;;;;;;;4966552;28;20232;-85
2023/07/06 02:36:32;;;;;;;7.63;6.63;;;;;;;;;;4988500;28;20224;-84
2023/07/06 02:38:58;;;;;;;6.63;6.03;;;;;;;;;;4995722;28;20221;-83
2023/07/06 02:41:24;;;;;;;8.30;6.40;;;;;;;;;;5025877;28;20295;-85
2023/07/06 02:43:52;;;;;;;8.97;6.07;;;;;;;;;;4979277;28;20233;-84
2023/07/06 02:46:21;;;;;;;6.97;6.27;;;;;;;;;;4997835;28;20260;-84
2023/07/06 02:48:48;;;;;;;6.53;5.93;;;;;;;;;;4993533;28;20225;-86
2023/07/06 02:51:16;;;;;;;7.80;6.37;;;;;;;;;;4998650;28;20701;-84
2023/07/06 02:53:45;;;;;;;7.77;7.03;;;;;;;;;;4987965;28;20229;-85
2023/07/06 02:56:13;;;;;;;7.87;6.97;;;;;;;;;;5006419;28;20415;-86
2023/07/06 02:58:39;;;;;;;12.27;6.47;;;;;;;;;;4985420;28;20224;-84
2023/07/06 03:01:04;;;;;;;7.37;6.67;;;;;;;;;;5005790;28;20590;-85
2023/07/06 03:03:30;;;;;;;7.37;6.67;;;;;;;;;;4992594;28;20221;-84
2023/07/06 03:06:01;;;;;;;7.17;6.57;;;;;;;;;;5015813;28;20221;-85
2023/07/06 03:08:29;;;;;;;7.70;6.80;;;;;;;;;;5014956;28;20232;-85
2023/07/06 03:10:57;;;;;;;7.37;6.50;;;;;;;;;;4995858;28;20796;-85
2023/07/06 03:13:25;;;;;;;7.73;6.90;;;;;;;;;;4998121;28;20225;-85
2023/07/06 03:15:51;;;;;;;7.40;6.57;;;;;;;;;;4978423;28;20228;-84
2023/07/06 03:18:18;;;;;;;7.47;6.77;;;;;;;;;;4992089;28;20221;-84
2023/07/06 03:20:46;;;;;;;10.37;7.03;;;;;;;;;;4983749;28;20213;-86
2023/07/06 03:23:11;;;;;;;8.67;6.83;;;;;;;;;;4986975;28;20216;-85
2023/07/06 03:25:39;;;;;;;7.37;6.57;;;;;;;;;;4996047;28;20278;-85
2023/07/06 03:28:08;;;;;;;8.40;7.17;;;;;;;;;;5009696;28;20645;-86
2023/07/06 03:30:33;;;;;;;7.33;6.63;;;;;;;;;;4998796;28;20212;-85
2023/07/06 03:33:01;;;;;;;8.77;6.87;;;;;;;;;;4998363;28;20668;-84
2023/07/06 03:35:28;;;;;;;7.43;6.53;;;;;;;;;;5018694;28;20256;-84
2023/07/06 03:37:58;;;;;;;9.03;7.10;;;;;;;;;;5006183;28;20304;-85
2023/07/06 03:40:30;;;;;;;8.80;6.03;;;;;;;;;;4998104;28;20642;-84
2023/07/06 03:42:58;;;;;;;7.13;6.43;;;;;;;;;;5039000;28;20651;-86
2023/07/06 03:45:24;;;;;;;7.20;6.60;;;;;;;;;;5017812;28;20233;-86
2023/07/06 03:47:52;;;;;;;7.63;6.93;;;;;;;;;;4977313;28;20288;-87
2023/07/06 03:50:20;;;;;;;9.23;6.57;;;;;;;;;;4996813;28;20267;-85
2023/07/06 03:52:46;;;;;;;7.73;6.90;;;;;;;;;;4985627;28;20300;-84
2023/07/06 03:55:15;;;;;;;7.97;7.23;;;;;;;;;;4992001;28;20218;-85
2023/07/06 03:57:45;;;;;;;7.50;6.80;;;;;;;;;;5022944;28;20280;-84
2023/07/06 04:00:21;;;;;;;7.60;6.90;;;;;;;;;;5029308;28;20303;-85
2023/07/06 04:02:48;;;;;;;7.50;6.73;;;;;;;;;;4984298;28;20224;-86
2023/07/06 04:05:16;;;;;;;7.53;6.83;;;;;;;;;;4976999;28;20229;-85
2023/07/06 04:07:42;;;;;;;8.17;7.37;;;;;;;;;;4996583;28;20225;-85
2023/07/06 04:10:08;;;;;;;7.50;6.90;;;;;;;;;;4996884;28;20239;-85
2023/07/06 04:12:35;;;;;;;7.10;6.40;;;;;;;;;;4966533;28;20217;-85
2023/07/06 04:15:01;;;;;;;7.90;7.10;;;;;;;;;;5014583;28;20225;-87
2023/07/06 04:17:26;;;;;;;8.20;7.40;;;;;;;;;;5016395;28;20212;-86
2023/07/06 04:19:53;;;;;;;8.03;7.37;;;;;;;;;;4994097;28;20304;-84
2023/07/06 04:22:19;;;;;;;7.73;7.03;;;;;;;;;;4987641;28;20309;-88
2023/07/06 04:24:46;;;;;;;8.43;7.63;;;;;;;;;;4979028;28;20233;-85
2023/07/06 04:27:12;;;;;;;8.23;7.43;;;;;;;;;;4997427;28;20213;-86
2023/07/06 04:29:37;;;;;;;8.40;7.70;;;;;;;;;;4986098;28;20567;-84
2023/07/06 04:32:03;;;;;;;9.10;8.20;;;;;;;;;;5022705;28;20216;-85
2023/07/06 04:34:30;;;;;;;8.63;7.75;;;;;;;;;;5029236;28;20228;-85
2023/07/06 04:36:59;;;;;;;9.13;7.87;;;;;;;;;;4976829;28;20248;-83
2023/07/06 04:39:29;;;;;;;8.70;7.83;;;;;;;;;;5032845;28;20235;-87
2023/07/06 04:41:55;;;;;;;9.45;8.43;;;;;;;;;;5000628;28;20217;-83
2023/07/06 04:44:20;;;;;;;9.88;8.48;;;;;;;;;;5017482;28;20242;-84
2023/07/06 04:46:46;;;;;;;9.18;8.27;;;;;;;;;;4999668;28;20211;-82
2023/07/06 04:49:14;;;;;;;8.43;7.72;;;;;;;;;;5016269;28;20867;-85
2023/07/06 04:51:41;;;;;;;8.63;7.80;;;;;;;;;;5000214;28;20220;-85
2023/07/06 04:54:08;;;;;;;9.50;8.52;;;;;;;;;;5007108;28;20220;-84
2023/07/06 04:56:37;;;;;;;8.93;8.13;;;;;;;;;;5013915;28;20296;-83
2023/07/06 04:59:04;;;;;;;9.03;8.20;;;;;;;;;;5038732;28;20230;-84
2023/07/06 05:01:31;;;;;;;8.70;7.82;;;;;;;;;;5014170;28;20694;-84
2023/07/06 05:03:57;;;;;;;8.97;8.03;;;;;;;;;;4998341;28;20225;-87
2023/07/06 05:06:26;;;;;;;9.30;8.00;;;;;;;;;;4962008;28;20239;-85
2023/07/06 05:08:56;;;;;;;9.53;7.60;;;;;;;;;;5002958;28;20216;-85
2023/07/06 05:11:25;;;;;;;8.80;8.00;;;;;;;;;;4994547;28;20291;-85
2023/07/06 05:13:52;;;;;;;9.70;8.13;;;;;;;;;;4991261;28;20954;-86
2023/07/06 05:16:19;;;;;;;8.33;7.67;;;;;;;;;;5017611;28;20224;-83
2023/07/06 05:18:48;;;;;;;8.50;7.80;;;;;;;;;;4988935;28;20232;-82
2023/07/06 05:21:14;;;;;;;8.70;7.90;;;;;;;;;;4994538;28;20216;-84
2023/07/06 05:23:40;;;;;;;7.93;7.23;;;;;;;;;;4956755;28;20232;-85
2023/07/06 05:26:06;;;;;;;8.95;8.15;;;;;;;;;;4991283;28;20214;-84
2023/07/06 05:28:34;;;;;;;8.73;8.02;;;;;;;;;;4993513;28;20663;-86
2023/07/06 05:31:02;;;;;;;8.60;7.82;;;;;;;;;;5016130;28;20225;-83
2023/07/06 05:33:33;;;;;;;7.95;7.25;;;;;;;;;;5038373;28;20229;-87
2023/07/06 05:36:01;;;;;;;8.18;7.45;;;;;;;;;;4976835;28;20217;-83
2023/07/06 05:38:26;;;;;;;8.25;7.40;;;;;;;;;;5002376;28;20260;-83
2023/07/06 05:40:52;;;;;;;8.40;7.60;;;;;;;;;;5023015;28;20274;-86
2023/07/06 05:43:19;;;;;;;8.48;7.60;;;;;;;;;;5004806;28;20584;-85
2023/07/06 05:45:46;;;;;;;9.43;8.50;;;;;;;;;;4971196;28;20220;-86
2023/07/06 05:48:13;;;;;;;8.73;8.02;;;;;;;;;;4983695;28;20721;-84
2023/07/06 05:50:39;;;;;;;9.18;8.10;;;;;;;;;;4983551;28;20228;-83
2023/07/06 05:53:10;;;;;;;8.90;8.10;;;;;;;;;;4992722;28;20217;-83
2023/07/06 05:55:35;;;;;;;9.07;8.10;;;;;;;;;;5011402;28;20248;-85
2023/07/06 05:58:02;;;;;;;8.68;7.88;;;;;;;;;;5033704;28;20230;-88
2023/07/06 06:00:32;;;;;;;9.13;8.23;;;;;;;;;;5012162;28;21200;-87
2023/07/06 06:02:58;;;;;;;9.75;7.90;;;;;;;;;;4976130;28;20209;-84
2023/07/06 06:05:26;;;;;;;8.90;8.00;;;;;;;;;;5018834;28;20216;-85
2023/07/06 06:07:52;;;;;;;8.48;7.72;;;;;;;;;;4977440;28;20240;-86
2023/07/06 06:10:22;;;;;;;7.97;7.28;;;;;;;;;;4994234;28;20651;-84
2023/07/06 06:12:48;;;;;;;7.90;7.13;;;;;;;;;;4973680;28;20220;-86
2023/07/06 06:15:17;;;;;;;7.50;6.78;;;;;;;;;;4994855;28;20213;-89
2023/07/06 06:17:44;;;;;;;10.98;7.25;;;;;;;;;;4966386;28;20220;-87
2023/07/06 06:20:10;;;;;;;9.73;7.95;;;;;;;;;;5005054;28;20295;-84
2023/07/06 06:22:40;;;;;;;8.43;7.13;;;;;;;;;;4981383;28;20251;-85
2023/07/06 06:25:05;;;;;;;9.95;7.03;;;;;;;;;;5021740;28;20241;-87
2023/07/06 06:27:32;;;;;;;9.05;6.57;;;;;;;;;;4995559;28;20617;-84
2023/07/06 06:30:00;;;;;;;7.32;6.72;;;;;;;;;;4989565;28;20217;-84
2023/07/06 06:32:25;;;;;;;6.30;5.70;;;;;;;;;;4977813;28;20236;-86
2023/07/06 06:34:52;;;;;;;7.38;6.68;;;;;;;;;;4989956;28;20683;-77
2023/07/06 06:37:17;;;;;;;7.93;7.15;;;;;;;;;;4983927;28;21082;-78
2023/07/06 06:39:46;;;;;;;7.45;6.80;;;;;;;;;;4975520;28;20217;-79
2023/07/06 06:42:15;;;;;;;6.43;5.82;;;;;;;;;;4988412;28;20232;-77
2023/07/06 06:44:45;;;;;;;5.93;5.35;;;;;;;;;;4971529;28;20220;-78
2023/07/06 06:47:11;;;;;;;5.93;5.43;;;;;;;;;;5017074;28;20225;-79
2023/07/06 06:49:37;;;;;;;7.75;5.95;;;;;;;;;;5011270;28;20248;-78
2023/07/06 06:52:04;;;;;;;7.20;6.50;;;;;;;;;;5034299;28;20216;-78
2023/07/06 06:54:34;;;;;;;7.72;5.40;;;;;;;;;;5002724;28;20227;-78
2023/07/06 06:57:04;;;;;;;5.38;4.88;;;;;;;;;;5008671;28;20828;-80
2023/07/06 06:59:32;;;;;;;7.38;4.70;;;;;;;;;;5018829;28;20308;-78
2023/07/06 07:02:01;;;;;;;5.72;5.13;;;;;;;;;;5012521;28;20258;-77
2023/07/06 07:04:29;;;;;;;5.28;4.78;;;;;;;;;;4993047;28;20224;-78
2023/07/06 07:06:54;;;;;;;4.45;4.13;;;;;;;;;;5006010;28;20263;-78
2023/07/06 07:09:20;;;;;;;4.63;4.22;;;;;;;;;;5019319;28;20224;-78
2023/07/06 07:11:46;;;;;;;5.43;4.32;;;;;;;;;;5006795;28;20224;-78
2023/07/06 07:14:15;;;;;;;8.13;5.20;;;;;;;;;;4989342;28;20236;-78
2023/07/06 07:16:40;;;;;;;4.82;4.43;;;;;;;;;;4986000;28;20224;-76
2023/07/06 07:19:06;;;;;;;5.10;4.28;;;;;;;;;;5007627;28;20252;-78
2023/07/06 07:21:32;;;;;;;4.28;3.90;;;;;;;;;;5006742;28;20306;-76
2023/07/06 07:24:00;;;;;;;5.13;3.90;;;;;;;;;;5000265;28;20689;-78
2023/07/06 07:26:29;;;;;;;5.07;4.20;;;;;;;;;;5001146;28;20236;-77
2023/07/06 07:28:57;;;;;;;4.65;3.38;;;;;;;;;;4972134;28;20226;-79
2023/07/06 07:31:25;;;;;;;4.82;3.15;;;;;;;;;;4996589;28;20648;-78
2023/07/06 07:33:51;;;;;;;5.50;3.50;;;;;;;;;;4981504;28;20225;-81
2023/07/06 07:36:17;;;;;;;4.78;3.10;;;;;;;;;;5036182;28;20224;-77
2023/07/06 07:38:44;;;;;;;3.58;3.08;;;;;;;;;;5010521;28;20304;-77
2023/07/06 07:41:13;;;;;;;4.43;3.13;;;;;;;;;;5001326;28;20232;-79
2023/07/06 07:43:42;;;;;;;3.28;2.90;;;;;;;;;;4999039;28;20635;-78
2023/07/06 07:46:10;;;;;;;4.55;3.35;;;;;;;;;;4990855;28;20233;-79
2023/07/06 07:48:38;;;;;;;5.15;3.50;;;;;;;;;;5000241;28;20853;-77
2023/07/06 07:51:06;;;;;;;3.45;3.10;;;;;;;;;;5011754;28;20250;-77
2023/07/06 07:53:53;;;;;;;4.38;3.53;;;;;;;;;;5011128;28;20316;-81
2023/07/06 07:56:18;;;;;;;4.00;3.47;;;;;;;;;;5032322;28;20482;-78
2023/07/06 07:58:47;;;;;;;6.55;3.72;;;;;;;;;;5018301;28;20221;-76
2023/07/06 08:01:15;;;;;;;5.20;3.83;;;;;;;;;;5015986;28;20221;-77
2023/07/06 08:03:44;;;;;;;5.65;3.55;;;;;;;;;;4971938;28;20244;-77
2023/07/06 08:06:14;;;;;;;3.70;3.40;;;;;;;;;;4987133;28;20221;-78
2023/07/06 08:08:42;;;;;;;4.10;2.78;;;;;;;;;;4979442;28;20229;-78
2023/07/06 08:11:17;;;;;;;3.75;3.10;;;;;;;;;;5037150;28;20228;-79
2023/07/06 08:13:47;;;;;;;4.25;2.42;;;;;;;;;;5017326;28;20238;-80
2023/07/06 08:16:13;;;;;;;3.05;2.75;;;;;;;;;;5019177;28;21174;-78
2023/07/06 08:18:40;;;;;;;4.20;2.63;;;;;;;;;;5019188;28;20271;-77
2023/07/06 08:21:06;;;;;;;3.58;2.45;;;;;;;;;;4992559;28;20637;-77
2023/07/06 08:23:34;;;;;;;3.90;2.67;;;;;;;;;;5014140;28;20224;-80
2023/07/06 08:26:03;;;;;;;2.22;1.83;;;;;;;;;;5005909;28;20216;-79
2023/07/06 08:28:31;;;;;;;3.50;2.03;;;;;;;;;;4993370;28;20232;-80
2023/07/06 08:31:03;;;;;;;3.40;2.20;;;;;;;;;;4988779;28;20224;-80
2023/07/06 08:33:37;;;;;;;2.38;1.80;;;;;;;;;;5012518;28;20244;-78
2023/07/06 08:36:07;;;;;;;4.25;1.90;;;;;;;;;;5007394;28;20208;-77
2023/07/06 08:38:33;;;;;;;2.78;1.60;;;;;;;;;;5014893;28;20654;-78
2023/07/06 08:41:03;;;;;;;2.05;1.67;;;;;;;;;;5000231;28;20223;-79
2023/07/06 08:43:30;;;;;;;2.85;1.95;;;;;;;;;;5003191;28;20224;-82
2023/07/06 08:46:02;;;;;;;2.15;1.73;;;;;;;;;;4987998;28;20224;-80
2023/07/06 08:48:31;;;;;;;2.88;1.95;;;;;;;;;;5023442;28;20603;-79
2023/07/06 08:51:17;;;;;;;6.20;2.92;;;;;;;;;;5018890;28;20809;-80
2023/07/06 08:54:16;;;;;;;3.47;2.30;;;;;;;;;;5022112;28;20367;-79
2023/07/06 08:56:42;;;;;;;3.22;2.65;;;;;;;;;;5016965;28;20256;-79
2023/07/06 08:59:13;;;;;;;3.25;2.70;;;;;;;;;;5035848;28;20278;-79
2023/07/06 09:01:39;;;;;;;2.90;2.70;;;;;;;;;;5010170;28;20228;-79
2023/07/06 09:04:12;;;;;;;2.88;2.50;;;;;;;;;;4984244;28;20223;-79
2023/07/06 09:06:41;;;;;;;5.45;2.58;;;;;;;;;;5007022;28;20220;-78
2023/07/06 09:09:07;;;;;;;2.28;1.95;;;;;;;;;;5020685;28;20225;-79
2023/07/06 09:11:33;;;;;;;3.58;2.03;;;;;;;;;;5036288;28;20232;-79
2023/07/06 09:14:02;;;;;;;3.78;2.22;;;;;;;;;;5027867;28;20399;-78
2023/07/06 09:16:28;;;;;;;4.95;2.30;;;;;;;;;;5018500;28;20594;-79
2023/07/06 09:18:53;;;;;;;3.08;2.05;;;;;;;;;;5025833;28;20611;-79
2023/07/06 09:21:27;;;;;;;6.57;2.20;;;;;;;;;;4993896;28;20236;-78
2023/07/06 09:24:00;;;;;;;4.05;2.10;;;;;;;;;;5010749;28;20698;-78
2023/07/06 09:26:37;;;;;;;7.95;2.33;;;;;;;;;;5011933;28;20217;-78
2023/07/06 09:29:24;;;;;;;3.38;2.55;;;;;;;;;;5009908;28;20229;-78
2023/07/06 09:32:19;;;;;;;5.07;2.20;;;;;;;;;;5011234;28;20233;-79
2023/07/06 09:34:49;;;;;;;6.03;2.30;;;;;;;;;;5023250;28;20234;-79
2023/07/06 09:37:14;;;;;;;3.08;2.25;;;;;;;;;;5032569;28;20248;-78
2023/07/06 09:39:55;;;;;;;3.03;2.28;;;;;;;;;;5012075;28;20215;-78
2023/07/06 09:42:23;;;;;;;4.55;2.42;;;;;;;;;;5012566;28;20232;-77
2023/07/06 09:44:51;;;;;;;3.75;2.30;;;;;;;;;;4989909;28;20231;-77
2023/07/06 09:47:18;;;;;;;5.22;2.70;;;;;;;;;;4998068;28;20224;-78
2023/07/06 09:49:50;;;;;;;3.17;2.72;;;;;;;;;;5032405;28;20675;-81
2023/07/06 09:52:16;;;;;;;3.38;2.40;;;;;;;;;;5010439;28;20227;-78
2023/07/06 09:54:54;;;;;;;3.17;2.33;;;;;;;;;;4979561;28;20224;-78
2023/07/06 09:57:20;;;;;;;3.58;2.38;;;;;;;;;;5029498;28;20543;-80
2023/07/06 09:59:48;;;;;;;3.05;2.60;;;;;;;;;;4989628;28;20212;-77
2023/07/06 10:02:39;;;;;;;3.67;3.10;;;;;;;;;;4993746;28;20741;-80
2023/07/06 10:05:05;;;;;;;6.68;3.17;;;;;;;;;;5035049;28;20228;-79
2023/07/06 10:07:57;;;;;;;3.55;2.60;;;;;;;;;;5020428;28;20231;-80
2023/07/06 10:10:44;;;;;;;3.72;2.45;;;;;;;;;;5027971;28;20798;-79
2023/07/06 10:13:37;;;;;;;4.60;2.80;;;;;;;;;;5018182;28;20662;-80
2023/07/06 10:16:06;;;;;;;4.93;2.80;;;;;;;;;;5018125;28;20217;-80
2023/07/06 10:18:39;;;;;;;3.17;2.47;;;;;;;;;;5014188;28;20233;-80
2023/07/06 10:21:36;;;;;;;3.65;2.70;;;;;;;;;;4988675;28;20220;-79
2023/07/06 10:24:20;;;;;;;3.00;2.70;;;;;;;;;;5006781;28;20255;-79
2023/07/06 10:26:48;;;;;;;4.00;3.03;;;;;;;;;;5005011;28;20247;-78
2023/07/06 10:29:21;;;;;;;3.10;2.55;;;;;;;;;;4968791;28;20308;-80
2023/07/06 10:31:48;;;;;;;2.95;2.50;;;;;;;;;;4983277;28;20584;-80
2023/07/06 10:34:38;;;;;;;3.63;2.70;;;;;;;;;;5000499;28;20224;-81
2023/07/06 10:37:04;;;;;;;4.72;2.83;;;;;;;;;;4970064;28;20220;-79
2023/07/06 10:39:29;;;;;;;4.10;2.60;;;;;;;;;;5009255;28;20696;-79
2023/07/06 10:42:05;;;;;;;3.00;2.50;;;;;;;;;;5007060;28;20221;-78
2023/07/06 10:44:46;;;;;;;3.15;2.60;;;;;;;;;;5017815;28;20243;-78
2023/07/06 10:47:29;;;;;;;6.03;3.08;;;;;;;;;;5002060;28;20225;-79
2023/07/06 10:50:07;;;;;;;4.47;3.78;;;;;;;;;;5011780;28;20289;-79
2023/07/06 10:52:36;;;;;;;6.60;3.67;;;;;;;;;;4997948;28;20228;-80
2023/07/06 10:55:04;;;;;;;7.57;3.88;;;;;;;;;;4992496;28;20229;-79
2023/07/06 10:57:34;;;;;;;2.88;2.67;;;;;;;;;;5010758;28;20224;-79
2023/07/06 11:00:14;;;;;;;4.13;3.10;;;;;;;;;;4993329;28;20224;-79
2023/07/06 11:02:40;;;;;;;3.70;2.90;;;;;;;;;;5009404;28;20220;-77
2023/07/06 11:05:25;;;;;;;4.68;3.20;;;;;;;;;;5023883;28;20224;-80
2023/07/06 11:07:52;;;;;;;3.80;3.30;;;;;;;;;;5002918;28;20239;-80
2023/07/06 11:10:33;;;;;;;6.35;3.33;;;;;;;;;;5030807;28;20327;-79
2023/07/06 11:13:01;;;;;;;3.83;3.10;;;;;;;;;;5021106;28;20221;-80
2023/07/06 11:15:39;;;;;;;3.88;3.13;;;;;;;;;;5006293;28;20253;-80
2023/07/06 11:18:21;;;;;;;2.90;2.60;;;;;;;;;;5006283;28;20252;-79
2023/07/06 11:20:57;;;;;;;3.22;2.92;;;;;;;;;;5024055;28;21182;-78
2023/07/06 11:23:37;;;;;;;5.72;3.70;;;;;;;;;;4989694;28;20275;-79
2023/07/06 11:26:13;;;;;;;9.65;5.05;;;;;;;;;;5003396;28;20701;-78
2023/07/06 11:28:39;;;;;;;5.20;4.60;;;;;;;;;;5003733;28;20693;-78
2023/07/06 11:31:17;;;;;;;7.63;5.72;;;;;;;;;;5028484;28;20231;-78
2023/07/06 11:34:00;;;;;;;8.43;5.65;;;;;;;;;;4982342;28;20339;-79
2023/07/06 11:36:32;;;;;;;6.72;5.97;;;;;;;;;;5014608;28;20297;-79
2023/07/06 11:39:08;;;;;;;10.13;6.80;;;;;;;;;;4984658;28;20304;-78
2023/07/06 11:41:43;;;;;;;7.38;6.68;;;;;;;;;;5015658;28;20234;-79
2023/07/06 11:44:51;;;;;;;8.52;6.32;;;;;;;;;;4986543;28;20236;-78
2023/07/06 11:47:19;;;;;;;11.77;6.20;;;;;;;;;;5029190;28;20327;-79
2023/07/06 11:49:47;;;;;;;9.43;5.78;;;;;;;;;;5000150;28;20698;-79
2023/07/06 11:52:24;;;;;;;7.57;6.60;;;;;;;;;;5004821;28;20213;-79
2023/07/06 11:55:05;;;;;;;8.50;6.40;;;;;;;;;;4988852;28;20228;-78
2023/07/06 11:57:43;;;;;;;5.63;4.88;;;;;;;;;;5012135;28;20216;-78
2023/07/06 12:03:08;;;;;;;5.05;4.40;;;;;;;;;;5040309;28;20241;-77
2023/07/06 12:05:49;;;;;;;5.20;3.90;;;;;;;;;;5007758;28;20223;-76
2023/07/06 12:08:20;;;;;;;5.38;4.60;;;;;;;;;;5011414;28;20227;-77
2023/07/06 12:10:52;;;;;;;8.70;4.70;;;;;;;;;;5009660;28;20595;-78
2023/07/06 12:13:25;;;;;;;5.68;5.15;;;;;;;;;;5018720;28;20284;-76
2023/07/06 12:16:05;;;;;;;8.05;5.78;;;;;;;;;;5021133;28;20255;-76
2023/07/06 12:18:31;;;;;;;6.97;5.95;;;;;;;;;;5012421;28;20698;-77
2023/07/06 12:20:56;;;;;;;7.20;5.50;;;;;;;;;;5001080;28;20213;-77
2023/07/06 12:23:22;;;;;;;8.52;6.10;;;;;;;;;;4982126;28;20582;-76
2023/07/06 12:25:48;;;;;;;5.20;4.70;;;;;;;;;;5011433;28;20252;-77
2023/07/06 12:28:15;;;;;;;7.25;5.05;;;;;;;;;;4968796;28;20595;-78
2023/07/06 12:30:42;;;;;;;6.93;4.40;;;;;;;;;;5008696;28;20213;-78
2023/07/06 12:33:10;;;;;;;3.95;3.50;;;;;;;;;;4990043;28;20627;-78
2023/07/06 12:35:36;;;;;;;3.58;2.97;;;;;;;;;;5001920;28;20291;-78
2023/07/06 12:38:03;;;;;;;3.00;2.70;;;;;;;;;;4995710;28;20223;-79
2023/07/06 12:40:31;;;;;;;3.70;3.35;;;;;;;;;;5004711;28;20312;-77
2023/07/06 12:43:00;;;;;;;3.78;3.47;;;;;;;;;;4968153;28;20223;-77
2023/07/06 12:45:29;;;;;;;3.80;3.50;;;;;;;;;;5017646;28;20225;-77
2023/07/06 12:47:59;;;;;;;4.65;3.95;;;;;;;;;;4974715;28;20229;-77
2023/07/06 12:50:29;;;;;;;4.88;3.83;;;;;;;;;;5022265;28;20218;-77
2023/07/06 12:53:21;;;;;;;5.00;4.50;;;;;;;;;;4966184;28;20312;-77
2023/07/06 12:55:49;;;;;;;5.18;4.63;;;;;;;;;;4994194;28;20235;-77
2023/07/06 12:58:32;;;;;;;4.45;4.05;;;;;;;;;;5029406;28;20599;-76
2023/07/06 13:01:09;;;;;;;4.28;3.88;;;;;;;;;;5014013;28;20213;-76
2023/07/06 13:03:58;;;;;;;5.68;3.92;;;;;;;;;;4999475;28;20231;-76
2023/07/06 13:06:26;;;;;;;7.32;3.72;;;;;;;;;;4985459;28;20220;-76
2023/07/06 13:09:01;;;;;;;5.50;3.97;;;;;;;;;;4965558;28;20229;-76
2023/07/06 13:11:26;;;;;;;4.00;3.60;;;;;;;;;;5007043;28;20220;-78
2023/07/06 13:14:03;;;;;;;8.10;3.38;;;;;;;;;;5026190;28;20220;-79
2023/07/06 13:16:37;;;;;;;4.22;2.88;;;;;;;;;;5010051;28;20216;-76
2023/07/06 13:19:03;;;;;;;5.35;3.00;;;;;;;;;;5024900;28;20298;-77
2023/07/06 13:21:30;;;;;;;4.00;2.60;;;;;;;;;;5002915;28;20220;-76
2023/07/06 13:23:56;;;;;;;4.70;3.65;;;;;;;;;;5021463;28;20220;-76
2023/07/06 13:26:26;;;;;;;4.68;3.05;;;;;;;;;;5009807;28;20263;-77
2023/07/06 13:28:55;;;;;;;3.42;2.83;;;;;;;;;;5032292;28;20875;-77
2023/07/06 13:31:21;;;;;;;4.13;3.67;;;;;;;;;;5024859;28;20213;-76
2023/07/06 13:33:47;;;;;;;5.60;3.30;;;;;;;;;;5018801;28;20577;-77
2023/07/06 13:36:16;;;;;;;7.05;3.00;;;;;;;;;;5033491;28;20236;-77
2023/07/06 13:38:47;;;;;;;4.65;3.38;;;;;;;;;;5020065;28;20318;-76
2023/07/06 13:41:17;;;;;;;3.35;2.97;;;;;;;;;;4980788;28;20248;-75
2023/07/06 13:43:46;;;;;;;4.30;3.22;;;;;;;;;;4997036;28;20858;-76
2023/07/06 13:46:12;;;;;;;6.07;3.35;;;;;;;;;;5011741;28;20224;-77
2023/07/06 13:48:38;;;;;;;4.13;3.20;;;;;;;;;;4992423;28;20232;-77
2023/07/06 13:51:05;;;;;;;5.45;3.65;;;;;;;;;;4990918;28;20220;-76
2023/07/06 13:53:33;;;;;;;4.50;3.47;;;;;;;;;;4999840;28;20315;-77
2023/07/06 13:55:59;;;;;;;4.85;3.60;;;;;;;;;;4967149;28;21278;-79
2023/07/06 13:58:25;;;;;;;4.43;3.80;;;;;;;;;;5001155;28;20213;-78
2023/07/06 14:00:53;;;;;;;5.43;3.95;;;;;;;;;;5014024;28;20221;-77
2023/07/06 14:03:23;;;;;;;7.68;3.67;;;;;;;;;;4983090;28;21188;-77
2023/07/06 14:05:51;;;;;;;4.93;3.10;;;;;;;;;;4990324;28;20210;-76
2023/07/06 14:08:18;;;;;;;4.75;2.53;;;;;;;;;;4986293;28;20325;-77
2023/07/06 14:10:47;;;;;;;2.85;2.45;;;;;;;;;;5009160;28;20209;-79
2023/07/06 14:13:13;;;;;;;3.10;2.72;;;;;;;;;;5011148;28;20225;-77
2023/07/06 14:15:39;;;;;;;6.00;2.58;;;;;;;;;;5004083;28;20573;-79
2023/07/06 14:18:08;;;;;;;3.95;2.35;;;;;;;;;;5018748;28;20217;-79
2023/07/06 14:20:40;;;;;;;4.80;2.50;;;;;;;;;;5002394;28;20233;-79
2023/07/06 14:23:06;;;;;;;5.50;3.10;;;;;;;;;;4999208;28;20583;-78
2023/07/06 14:25:34;;;;;;;3.40;2.38;;;;;;;;;;4995605;28;20637;-78
2023/07/06 14:27:59;;;;;;;4.55;2.70;;;;;;;;;;5007118;28;20727;-78
2023/07/06 14:30:26;;;;;;;2.90;2.50;;;;;;;;;;4999074;28;20221;-77
2023/07/06 14:32:52;;;;;;;3.42;2.45;;;;;;;;;;4974143;28;20347;-78
2023/07/06 14:35:18;;;;;;;2.67;1.95;;;;;;;;;;4992686;28;20784;-78
2023/07/06 14:37:44;;;;;;;2.05;1.75;;;;;;;;;;5026302;28;20632;-78
2023/07/06 14:40:11;;;;;;;3.33;1.80;;;;;;;;;;5012542;28;20240;-78
2023/07/06 14:42:39;;;;;;;3.80;1.67;;;;;;;;;;5018576;28;20255;-76
2023/07/06 14:45:08;;;;;;;2.83;1.73;;;;;;;;;;5009120;28;20235;-78
2023/07/06 14:47:38;;;;;;;2.10;1.50;;;;;;;;;;4986634;28;20252;-77
2023/07/06 14:50:06;;;;;;;1.63;1.50;;;;;;;;;;4965450;28;20221;-78
2023/07/06 14:52:31;;;;;;;2.75;1.95;;;;;;;;;;5015423;28;20231;-79
2023/07/06 14:54:59;;;;;;;2.10;1.65;;;;;;;;;;4993159;28;20220;-78
2023/07/06 14:57:26;;;;;;;2.67;2.00;;;;;;;;;;4999623;28;20747;-78
2023/07/06 14:59:54;;;;;;;2.28;1.80;;;;;;;;;;5005009;28;20667;-78
2023/07/06 15:02:21;;;;;;;1.95;1.50;;;;;;;;;;5032278;28;20221;-78
2023/07/06 15:04:48;;;;;;;4.03;1.95;;;;;;;;;;4994897;28;20234;-77